createdAt,value
2023-04-08T00:00:06.789Z,9.63
2023-04-08T00:02:39.133Z,9.03
2023-04-08T00:05:10.723Z,9.23
2023-04-08T00:07:39.503Z,9.67
2023-04-08T00:10:10.314Z,9.43
2023-04-08T00:12:39.140Z,9.47
2023-04-08T00:15:08.917Z,9.63
2023-04-08T00:17:37.587Z,8.60
2023-04-08T00:20:09.294Z,8.83
2023-04-08T00:22:38.143Z,8.77
2023-04-08T00:25:09.619Z,9.23
2023-04-08T00:27:38.299Z,8.77
2023-04-08T00:30:08.884Z,8.20
2023-04-08T00:32:38.051Z,8.07
2023-04-08T00:35:09.480Z,8.00
2023-04-08T00:37:38.168Z,8.60
2023-04-08T00:40:08.364Z,8.27
2023-04-08T00:42:37.046Z,8.53
2023-04-08T00:45:07.305Z,8.33
2023-04-08T00:47:37.973Z,8.00
2023-04-08T00:50:12.898Z,8.07
2023-04-08T00:52:41.596Z,8.17
2023-04-08T00:55:10.507Z,7.80
2023-04-08T00:57:39.339Z,8.53
2023-04-08T01:00:09.939Z,8.50
2023-04-08T01:02:49.231Z,8.53
2023-04-08T01:05:30.423Z,9.03
2023-04-08T01:08:06.410Z,8.67
2023-04-08T01:10:41.612Z,8.80
2023-04-08T01:13:15.710Z,8.63
2023-04-08T01:15:46.364Z,8.67
2023-04-08T01:18:18.104Z,8.10
2023-04-08T01:20:50.987Z,8.63
2023-04-08T01:23:34.519Z,8.87
2023-04-08T01:26:05.276Z,8.57
2023-04-08T01:28:38.167Z,8.30
2023-04-08T01:31:08.681Z,8.77
2023-04-08T01:33:38.793Z,8.50
2023-04-08T01:36:10.663Z,9.00
2023-04-08T01:38:41.157Z,8.70
2023-04-08T01:41:13.393Z,8.00
2023-04-08T01:43:44.770Z,8.40
2023-04-08T01:46:16.550Z,8.83
2023-04-08T01:48:47.204Z,8.60
2023-04-08T01:51:18.914Z,8.37
2023-04-08T01:53:47.756Z,7.50
2023-04-08T01:56:18.972Z,7.83
2023-04-08T01:58:54.052Z,8.17
2023-04-08T02:01:28.601Z,8.33
2023-04-08T02:04:00.680Z,7.20
2023-04-08T02:06:31.224Z,6.70
2023-04-08T02:09:02.304Z,6.30
2023-04-08T02:11:32.598Z,6.20
2023-04-08T02:14:01.512Z,5.83
2023-04-08T02:16:40.768Z,6.37
2023-04-08T02:19:17.444Z,6.60
2023-04-08T02:21:51.570Z,6.37
2023-04-08T02:24:22.598Z,6.40
2023-04-08T02:26:53.816Z,6.60
2023-04-08T02:29:23.583Z,6.43
2023-04-08T02:31:57.362Z,6.17
2023-04-08T02:34:27.228Z,6.90
2023-04-08T02:36:58.414Z,6.07
2023-04-08T02:39:33.522Z,5.90
2023-04-08T02:42:03.712Z,6.03
2023-04-08T02:44:32.513Z,5.57
2023-04-08T02:47:05.205Z,5.47
2023-04-08T02:49:37.157Z,5.37
2023-04-08T02:52:06.043Z,4.40
2023-04-08T02:54:34.722Z,5.20
2023-04-08T02:57:07.806Z,4.73
2023-04-08T02:59:37.852Z,5.00
2023-04-08T03:02:08.769Z,4.80
2023-04-08T03:04:37.575Z,4.30
2023-04-08T03:07:08.502Z,4.53
2023-04-08T03:09:39.663Z,4.60
2023-04-08T03:12:09.848Z,4.20
2023-04-08T03:14:38.680Z,4.20
2023-04-08T03:17:07.399Z,4.63
2023-04-08T03:19:36.181Z,3.90
2023-04-08T03:22:04.850Z,3.97
2023-04-08T03:24:33.552Z,4.00
2023-04-08T03:27:02.344Z,4.17
2023-04-08T03:29:32.435Z,3.97
2023-04-08T03:32:01.629Z,4.57
2023-04-08T03:34:30.368Z,4.30
2023-04-08T03:36:59.093Z,4.10
2023-04-08T03:39:27.856Z,4.27
2023-04-08T03:41:56.516Z,4.20
2023-04-08T03:44:25.226Z,4.17
2023-04-08T03:46:55.432Z,4.00
2023-04-08T03:49:24.201Z,3.37
2023-04-08T03:51:52.932Z,3.67
2023-04-08T03:54:21.739Z,3.43
2023-04-08T03:56:51.707Z,3.30
2023-04-08T03:59:20.492Z,3.40
2023-04-08T04:01:49.277Z,3.80
2023-04-08T04:04:19.472Z,3.30
2023-04-08T04:06:48.732Z,3.30
2023-04-08T04:09:17.925Z,3.07
2023-04-08T04:11:46.591Z,3.57
2023-04-08T04:14:15.551Z,3.47
2023-04-08T04:16:44.315Z,3.40
2023-04-08T04:19:13.190Z,2.77
2023-04-08T04:21:43.419Z,3.10
2023-04-08T04:24:13.488Z,2.60
2023-04-08T04:26:42.866Z,3.10
2023-04-08T04:29:11.610Z,2.67
2023-04-08T04:31:40.890Z,2.77
2023-04-08T04:34:09.905Z,3.03
2023-04-08T04:36:42.132Z,3.50
2023-04-08T04:39:12.994Z,3.00
2023-04-08T04:41:44.590Z,3.87
2023-04-08T04:44:13.460Z,3.50
2023-04-08T04:46:42.279Z,3.67
2023-04-08T04:49:10.985Z,3.87
2023-04-08T04:51:39.681Z,3.37
2023-04-08T04:54:11.939Z,3.70
2023-04-08T04:56:40.787Z,3.67
2023-04-08T04:59:09.809Z,3.87
2023-04-08T05:01:41.010Z,3.80
2023-04-08T05:04:09.876Z,3.53
2023-04-08T05:06:38.521Z,3.97
2023-04-08T05:09:07.314Z,3.70
2023-04-08T05:11:37.403Z,4.17
2023-04-08T05:14:07.955Z,4.23
2023-04-08T05:16:37.018Z,3.97
2023-04-08T05:19:05.817Z,4.07
2023-04-08T05:21:35.011Z,4.43
2023-04-08T05:24:03.945Z,4.10
2023-04-08T05:26:33.995Z,3.57
2023-04-08T05:29:06.834Z,3.20
2023-04-08T05:31:35.539Z,3.30
2023-04-08T05:34:04.415Z,3.20
2023-04-08T05:36:33.209Z,3.53
2023-04-08T05:39:03.292Z,3.50
2023-04-08T05:41:33.577Z,3.03
2023-04-08T05:44:03.665Z,3.17
2023-04-08T05:46:32.396Z,3.30
2023-04-08T05:49:01.462Z,3.00
2023-04-08T05:51:30.352Z,3.13
2023-04-08T05:53:59.021Z,3.30
2023-04-08T05:56:27.676Z,3.20
2023-04-08T05:58:56.397Z,7.63
2023-04-08T06:01:26.731Z,8.23
2023-04-08T06:03:56.308Z,6.33
2023-04-08T06:06:26.142Z,5.47
2023-04-08T06:08:55.008Z,5.30
2023-04-08T06:11:23.811Z,3.93
2023-04-08T06:13:52.835Z,3.80
2023-04-08T06:16:21.790Z,4.30
2023-04-08T06:18:53.481Z,4.67
2023-04-08T06:21:23.802Z,4.27
2023-04-08T06:23:57.854Z,4.73
2023-04-08T06:26:28.424Z,5.20
2023-04-08T06:28:58.574Z,5.00
2023-04-08T06:31:27.453Z,4.83
2023-04-08T06:33:58.407Z,5.47
2023-04-08T06:36:28.499Z,5.27
2023-04-08T06:39:27.299Z,5.33
2023-04-08T06:41:59.420Z,6.00
2023-04-08T06:44:38.349Z,5.57
2023-04-08T06:47:13.260Z,7.13
2023-04-08T06:49:43.281Z,6.57
2023-04-08T06:52:14.717Z,6.37
2023-04-08T06:54:43.889Z,6.40
2023-04-08T06:57:12.513Z,6.63
2023-04-08T06:59:41.221Z,7.67
2023-04-08T07:02:09.936Z,7.37
2023-04-08T07:04:38.655Z,8.80
2023-04-08T07:07:09.687Z,9.03
2023-04-08T07:09:38.866Z,10.60
2023-04-08T07:12:07.834Z,10.47
2023-04-08T07:14:37.561Z,11.53
2023-04-08T07:17:07.444Z,13.50
2023-04-08T07:19:36.212Z,13.27
2023-04-08T07:22:04.932Z,14.10
2023-04-08T07:24:35.077Z,13.60
2023-04-08T07:27:03.766Z,14.87
2023-04-08T07:29:34.516Z,15.87
2023-04-08T07:32:03.578Z,15.97
2023-04-08T07:34:32.293Z,16.00
2023-04-08T07:37:02.988Z,16.93
2023-04-08T07:39:31.764Z,15.77
2023-04-08T07:42:02.077Z,16.10
2023-04-08T07:44:30.929Z,16.73
2023-04-08T07:46:59.622Z,16.47
2023-04-08T07:49:28.372Z,16.10
2023-04-08T07:51:57.618Z,15.20
2023-04-08T07:54:26.397Z,15.40
2023-04-08T07:56:55.182Z,16.47
2023-04-08T07:59:25.478Z,15.60
2023-04-08T08:01:55.467Z,15.03
2023-04-08T08:04:25.963Z,15.83
2023-04-08T08:06:54.937Z,13.93
2023-04-08T08:09:26.313Z,14.10
2023-04-08T08:11:54.999Z,13.97
2023-04-08T08:14:26.774Z,14.03
2023-04-08T08:16:55.831Z,15.43
2023-04-08T08:19:24.629Z,12.80
2023-04-08T08:21:56.242Z,12.77
2023-04-08T08:24:26.098Z,12.50
2023-04-08T08:26:54.912Z,11.47
2023-04-08T08:29:25.102Z,10.77
2023-04-08T08:31:53.791Z,10.23
2023-04-08T08:34:22.480Z,9.70
2023-04-08T08:36:51.206Z,10.37
2023-04-08T08:39:19.976Z,9.77
2023-04-08T08:41:48.830Z,9.60
2023-04-08T08:44:17.654Z,10.97
2023-04-08T08:46:49.483Z,9.53
2023-04-08T08:49:18.295Z,8.80
2023-04-08T08:51:49.197Z,9.00
2023-04-08T08:54:18.091Z,9.30
2023-04-08T08:56:51.900Z,9.50
2023-04-08T08:59:20.709Z,9.07
2023-04-08T09:01:50.967Z,9.00
2023-04-08T09:04:22.828Z,9.03
2023-04-08T09:07:10.782Z,9.33
2023-04-08T09:09:58.683Z,8.73
2023-04-08T09:12:28.657Z,8.97
2023-04-08T09:15:08.771Z,8.77
2023-04-08T09:17:41.498Z,9.00
2023-04-08T09:20:12.784Z,8.37
2023-04-08T09:23:02.298Z,8.73
2023-04-08T09:25:33.315Z,8.97
2023-04-08T09:28:03.052Z,7.87
2023-04-08T09:30:34.882Z,9.33
2023-04-08T09:33:07.558Z,8.67
2023-04-08T09:35:37.212Z,8.07
2023-04-08T09:38:06.126Z,8.20
2023-04-08T09:40:36.898Z,8.60
2023-04-08T09:43:10.578Z,8.77
2023-04-08T09:45:44.100Z,9.47
2023-04-08T09:48:19.569Z,8.53
2023-04-08T09:50:53.447Z,9.23
2023-04-08T09:53:35.618Z,8.80
2023-04-08T09:56:11.643Z,8.63
2023-04-08T09:58:47.376Z,8.70
2023-04-08T10:01:22.974Z,8.63
2023-04-08T10:03:58.255Z,8.20
2023-04-08T10:06:32.787Z,8.53
2023-04-08T10:09:04.403Z,9.80
2023-04-08T10:11:34.990Z,13.77
2023-04-08T10:14:04.147Z,9.70
2023-04-08T10:16:36.222Z,8.60
2023-04-08T10:19:43.184Z,8.83
2023-04-08T10:22:48.679Z,8.97
2023-04-08T10:25:34.575Z,8.40
2023-04-08T10:28:29.969Z,9.00
2023-04-08T10:30:59.268Z,9.07
2023-04-08T10:33:39.233Z,9.33
2023-04-08T10:36:15.481Z,9.37
2023-04-08T10:38:44.623Z,10.17
2023-04-08T10:41:21.875Z,8.90
2023-04-08T10:43:51.964Z,9.67
2023-04-08T10:46:21.852Z,10.03
2023-04-08T10:49:02.724Z,9.70
2023-04-08T10:51:35.220Z,9.63
2023-04-08T10:54:08.644Z,10.23
2023-04-08T10:56:38.985Z,10.83
2023-04-08T10:59:07.804Z,10.20
2023-04-08T11:01:45.307Z,10.03
2023-04-08T11:04:17.237Z,9.47
2023-04-08T11:06:48.732Z,10.17
2023-04-08T11:09:18.337Z,10.10
2023-04-08T11:11:48.205Z,9.80
2023-04-08T11:14:22.120Z,8.63
2023-04-08T11:16:53.201Z,9.63
2023-04-08T11:19:22.945Z,10.17
2023-04-08T11:21:53.186Z,9.37
2023-04-08T11:24:23.843Z,9.17
2023-04-08T11:26:52.783Z,9.77
2023-04-08T11:29:22.719Z,10.23
2023-04-08T11:31:52.097Z,9.60
2023-04-08T11:34:25.792Z,10.13
2023-04-08T11:36:58.536Z,9.87
2023-04-08T11:39:27.332Z,10.60
2023-04-08T11:41:57.533Z,9.67
2023-04-08T11:44:33.708Z,10.00
2023-04-08T11:47:03.112Z,10.23
2023-04-08T11:49:46.308Z,10.00
2023-04-08T11:52:16.799Z,11.23
2023-04-08T11:54:46.268Z,10.40
2023-04-08T11:57:16.849Z,10.20
2023-04-08T11:59:46.000Z,10.87
2023-04-08T12:02:14.946Z,10.93
2023-04-08T12:04:43.677Z,11.10
2023-04-08T12:07:12.315Z,12.40
2023-04-08T12:09:42.857Z,12.77
2023-04-08T12:12:11.592Z,13.30
2023-04-08T12:14:40.422Z,13.80
2023-04-08T12:17:09.393Z,13.13
2023-04-08T12:19:38.613Z,13.37
2023-04-08T12:22:07.506Z,14.17
2023-04-08T12:24:36.211Z,14.13
2023-04-08T12:27:07.123Z,13.67
2023-04-08T12:29:36.032Z,15.53
2023-04-08T12:32:06.081Z,14.87
2023-04-08T12:34:35.350Z,15.23
2023-04-08T12:37:04.235Z,15.47
2023-04-08T12:39:34.088Z,15.60
2023-04-08T12:42:03.217Z,14.70
2023-04-08T12:44:33.528Z,15.83
2023-04-08T12:47:02.469Z,15.17
2023-04-08T12:49:39.564Z,14.70
2023-04-08T12:52:15.325Z,17.10
2023-04-08T12:54:44.097Z,15.73
2023-04-08T12:57:12.926Z,15.77
2023-04-08T12:59:42.946Z,15.83
2023-04-08T13:02:11.672Z,16.10
2023-04-08T13:04:40.675Z,15.83
2023-04-08T13:07:09.452Z,16.33
2023-04-08T13:09:38.148Z,17.37
2023-04-08T13:12:07.078Z,17.00
2023-04-08T13:14:36.251Z,17.50
2023-04-08T13:17:10.823Z,18.37
2023-04-08T13:19:39.881Z,17.87
2023-04-08T13:22:08.604Z,21.13
2023-04-08T13:24:37.619Z,18.27
2023-04-08T13:27:07.295Z,18.60
2023-04-08T13:29:36.061Z,19.30
2023-04-08T13:32:06.381Z,19.40
2023-04-08T13:34:35.180Z,20.00
2023-04-08T13:37:04.362Z,19.13
2023-04-08T13:39:33.233Z,19.10
2023-04-08T13:42:02.903Z,19.97
2023-04-08T13:44:33.288Z,20.17
2023-04-08T13:47:02.369Z,20.33
2023-04-08T13:49:32.978Z,19.80
2023-04-08T13:52:01.900Z,19.37
2023-04-08T13:54:31.115Z,19.70
2023-04-08T13:56:59.991Z,18.30
2023-04-08T13:59:31.214Z,20.40
2023-04-08T14:02:00.272Z,18.63
2023-04-08T14:04:29.252Z,18.13
2023-04-08T14:07:01.540Z,18.07
2023-04-08T14:09:31.485Z,17.17
2023-04-08T14:12:00.175Z,16.57
2023-04-08T14:14:28.849Z,17.43
2023-04-08T14:16:57.716Z,17.90
2023-04-08T14:19:26.727Z,16.67
2023-04-08T14:21:55.550Z,15.80
2023-04-08T14:24:25.715Z,16.73
2023-04-08T14:26:54.626Z,16.20
2023-04-08T14:29:26.521Z,15.70
2023-04-08T14:31:56.921Z,15.40
2023-04-08T14:34:28.400Z,15.77
2023-04-08T14:36:57.149Z,15.60
2023-04-08T14:39:29.971Z,14.87
2023-04-08T14:41:58.656Z,13.00
2023-04-08T14:44:27.649Z,12.83
2023-04-08T14:46:57.280Z,12.83
2023-04-08T14:49:26.058Z,13.00
2023-04-08T14:51:55.171Z,13.13
2023-04-08T14:54:23.943Z,13.30
2023-04-08T14:56:54.206Z,13.53
2023-04-08T14:59:22.956Z,14.50
2023-04-08T15:01:53.871Z,13.93
2023-04-08T15:04:23.666Z,14.13
2023-04-08T15:06:54.162Z,13.40
2023-04-08T15:09:23.769Z,13.47
2023-04-08T15:11:54.269Z,12.67
2023-04-08T15:14:23.134Z,13.03
2023-04-08T15:16:52.181Z,12.90
2023-04-08T15:19:21.377Z,12.87
2023-04-08T15:21:50.346Z,13.17
2023-04-08T15:24:20.249Z,12.27
2023-04-08T15:26:49.346Z,13.30
2023-04-08T15:29:22.007Z,13.80
2023-04-08T15:31:53.942Z,12.23
2023-04-08T15:34:22.750Z,12.80
2023-04-08T15:36:52.574Z,12.90
2023-04-08T15:39:22.534Z,12.80
2023-04-08T15:41:51.439Z,12.40
2023-04-08T15:44:22.540Z,11.73
2023-04-08T15:46:52.657Z,13.10
2023-04-08T15:49:25.458Z,10.63
2023-04-08T15:51:54.306Z,10.67
2023-04-08T15:54:22.949Z,10.83
2023-04-08T15:56:51.963Z,10.70
2023-04-08T15:59:48.013Z,12.10
2023-04-08T16:02:16.930Z,11.43
2023-04-08T16:04:46.365Z,11.77
2023-04-08T16:07:24.566Z,10.77
2023-04-08T16:10:18.989Z,11.20
2023-04-08T16:13:26.776Z,11.73
2023-04-08T16:15:57.275Z,11.57
2023-04-08T16:18:26.632Z,12.30
2023-04-08T16:20:55.777Z,12.67
2023-04-08T16:23:24.902Z,12.63
2023-04-08T16:30:48.079Z,41.53
2023-04-08T16:33:42.008Z,24.37
2023-04-08T16:36:38.032Z,13.60
2023-04-08T16:39:06.909Z,13.10
2023-04-08T16:41:36.758Z,13.23
2023-04-08T16:44:05.665Z,54.37
2023-04-08T16:46:35.011Z,14.77
2023-04-08T16:49:05.648Z,13.80
2023-04-08T16:51:34.658Z,14.63
2023-04-08T16:54:04.594Z,14.70
2023-04-08T16:56:33.851Z,14.67
2023-04-08T16:59:03.139Z,17.63
2023-04-08T17:01:32.545Z,15.87
2023-04-08T17:04:01.814Z,16.80
2023-04-08T17:06:34.691Z,17.40
2023-04-08T17:09:04.136Z,16.97
2023-04-08T17:11:33.166Z,17.40
2023-04-08T17:14:02.048Z,20.80
2023-04-08T17:16:31.264Z,17.27
2023-04-08T17:19:00.070Z,17.17
2023-04-08T17:21:29.482Z,17.77
2023-04-08T17:23:59.702Z,19.53
2023-04-08T17:26:28.440Z,17.80
2023-04-08T17:28:57.414Z,22.43
2023-04-08T17:31:26.640Z,21.37
2023-04-08T17:33:56.133Z,18.93
2023-04-08T17:36:25.047Z,19.60
2023-04-08T17:38:53.705Z,17.17
2023-04-08T17:41:38.132Z,16.70
2023-04-08T17:44:15.338Z,15.57
2023-04-08T17:46:45.262Z,16.07
2023-04-08T17:49:35.638Z,16.90
2023-04-08T17:52:10.294Z,15.03
2023-04-08T17:55:03.681Z,16.97
2023-04-08T17:58:27.949Z,16.43
2023-04-08T18:01:10.419Z,15.47
2023-04-08T18:03:44.902Z,16.17
2023-04-08T18:06:19.151Z,15.93
2023-04-08T18:08:48.096Z,15.67
2023-04-08T18:11:16.980Z,16.00
2023-04-08T18:13:48.899Z,15.80
2023-04-08T18:16:23.810Z,16.17
2023-04-08T18:18:56.262Z,16.17
2023-04-08T18:21:27.314Z,16.10
2023-04-08T18:24:23.289Z,18.73
2023-04-08T18:27:04.347Z,18.13
2023-04-08T18:30:57.171Z,17.17
2023-04-08T18:33:31.837Z,17.30
2023-04-08T18:36:24.184Z,19.50
2023-04-08T18:38:53.299Z,20.43
2023-04-08T18:41:25.112Z,21.70
2023-04-08T18:43:54.019Z,21.43
2023-04-08T18:46:51.724Z,18.43
2023-04-08T18:49:25.807Z,20.37
2023-04-08T18:52:02.345Z,21.90
2023-04-08T18:55:24.827Z,20.47
2023-04-08T18:57:53.783Z,20.70
2023-04-08T19:00:23.309Z,18.10
2023-04-08T19:03:13.861Z,18.37
2023-04-08T19:05:44.199Z,17.37
2023-04-08T19:08:15.540Z,18.07
2023-04-08T19:10:59.948Z,17.10
2023-04-08T19:13:37.268Z,17.70
2023-04-08T19:16:37.927Z,18.13
2023-04-08T19:19:10.344Z,18.43
2023-04-08T19:22:07.877Z,19.33
2023-04-08T19:24:49.324Z,18.80
2023-04-08T19:32:06.190Z,18.27
2023-04-08T19:34:49.055Z,19.43
2023-04-08T19:37:40.624Z,18.33
2023-04-08T19:40:40.588Z,19.90
2023-04-08T19:43:37.194Z,19.40
2023-04-08T19:47:33.733Z,18.93
2023-04-08T20:11:04.600Z,18.13
2023-04-08T20:13:45.165Z,17.73
2023-04-08T20:16:24.899Z,18.20
2023-04-08T20:19:17.819Z,20.40
2023-04-08T20:21:54.112Z,20.27
2023-04-08T20:24:26.630Z,21.83
2023-04-08T20:27:08.110Z,21.77
2023-04-08T20:29:55.817Z,22.90
2023-04-08T20:32:26.794Z,18.30
2023-04-08T20:35:03.560Z,19.33
2023-04-08T20:37:51.460Z,20.40
2023-04-08T20:40:24.936Z,21.67
2023-04-08T20:42:56.260Z,21.37
2023-04-08T20:45:39.173Z,21.07
2023-04-08T20:48:14.976Z,19.30
2023-04-08T20:50:51.059Z,17.87
2023-04-08T20:53:24.219Z,17.70
2023-04-08T20:56:23.762Z,17.93
2023-04-08T20:59:00.533Z,17.47
2023-04-08T21:01:45.848Z,18.03
2023-04-08T21:04:36.860Z,18.00
2023-04-08T21:07:17.340Z,17.57
2023-04-08T21:09:50.301Z,18.00
2023-04-08T21:12:20.170Z,17.17
2023-04-08T21:14:52.319Z,17.00
2023-04-08T21:17:26.447Z,16.93
2023-04-08T21:20:07.032Z,17.83
2023-04-08T21:22:47.731Z,20.03
2023-04-08T21:25:19.721Z,20.37
2023-04-08T21:27:50.238Z,20.90
2023-04-08T21:30:27.536Z,20.33
2023-04-08T21:32:58.409Z,22.87
2023-04-08T21:35:29.534Z,23.00
2023-04-08T21:38:03.108Z,22.77
2023-04-08T21:40:32.061Z,21.10
2023-04-08T21:43:00.826Z,18.23
2023-04-08T21:45:30.941Z,18.37
2023-04-08T21:47:59.802Z,18.00
2023-04-08T21:50:28.644Z,18.10
2023-04-08T21:52:57.483Z,18.47
2023-04-08T21:55:27.196Z,19.27
2023-04-08T21:57:56.357Z,20.40
2023-04-08T22:00:25.225Z,19.67
2023-04-08T22:02:55.490Z,18.80
2023-04-08T22:05:36.933Z,20.40
2023-04-08T22:08:06.166Z,19.23
2023-04-08T22:10:34.967Z,19.57
2023-04-08T22:13:03.846Z,17.93
2023-04-08T22:15:32.570Z,18.80
2023-04-08T22:18:02.855Z,19.23
2023-04-08T22:20:31.916Z,18.13
2023-04-08T22:23:00.792Z,17.70
2023-04-08T22:25:29.619Z,19.07
2023-04-08T22:27:58.606Z,19.50
2023-04-08T22:30:27.343Z,19.70
2023-04-08T22:32:56.185Z,19.07
2023-04-08T22:35:26.506Z,19.10
2023-04-08T22:37:55.413Z,18.37
2023-04-08T22:40:24.670Z,19.47
2023-04-08T22:42:54.792Z,19.97
2023-04-08T22:46:15.995Z,19.97
2023-04-08T22:48:44.839Z,18.03
2023-04-08T22:51:15.173Z,18.90
2023-04-08T22:53:44.049Z,18.50
2023-04-08T22:56:12.886Z,18.73
2023-04-08T22:58:41.732Z,19.30
2023-04-08T23:01:17.203Z,18.67
2023-04-08T23:03:46.514Z,17.37
2023-04-08T23:11:01.814Z,17.47
2023-04-08T23:13:30.646Z,18.60
2023-04-08T23:15:59.731Z,18.33
2023-04-08T23:18:28.629Z,18.30
2023-04-08T23:20:59.141Z,18.63
2023-04-08T23:23:27.979Z,18.60
2023-04-08T23:25:56.744Z,18.70
2023-04-08T23:28:26.989Z,18.90
2023-04-08T23:30:55.921Z,18.67
2023-04-08T23:33:24.790Z,17.80
2023-04-08T23:35:53.591Z,20.00
2023-04-08T23:38:22.402Z,20.77
2023-04-08T23:40:52.772Z,19.20
2023-04-08T23:43:21.590Z,19.03
2023-04-08T23:45:55.376Z,18.57
2023-04-08T23:48:52.454Z,19.37
2023-04-08T23:51:47.378Z,18.10
2023-04-08T23:54:17.410Z,19.17
2023-04-08T23:56:47.278Z,17.87
2023-04-08T23:59:16.212Z,18.23
